createdAt,value
2024-02-08T00:01:44.176Z,100449.50
2024-02-08T00:02:16.323Z,100455.34
2024-02-08T00:02:49.867Z,100448.72
2024-02-08T00:03:21.510Z,100443.03
2024-02-08T00:03:53.191Z,100444.91
2024-02-08T00:04:43.425Z,100447.28
2024-02-08T00:05:15.407Z,100446.50
2024-02-08T00:05:47.042Z,100439.53
2024-02-08T00:06:20.223Z,100441.44
2024-02-08T00:06:52.160Z,100444.91
2024-02-08T00:07:24.165Z,100454.88
2024-02-08T00:07:56.127Z,100446.03
2024-02-08T00:08:46.272Z,100452.19
2024-02-08T00:09:25.179Z,100451.88
2024-02-08T00:09:58.336Z,100456.78
2024-02-08T00:10:30.073Z,100456.00
2024-02-08T00:11:04.172Z,100459.47
2024-02-08T00:11:39.993Z,100460.56
2024-02-08T00:12:14.284Z,100455.22
2024-02-08T00:12:46.397Z,100454.41
2024-02-08T00:13:18.968Z,100457.91
2024-02-08T00:13:53.053Z,100451.72
2024-02-08T00:14:27.099Z,100457.91
2024-02-08T00:14:58.842Z,100457.91
2024-02-08T00:15:33.375Z,100459.78
2024-02-08T00:16:23.460Z,100459.47
2024-02-08T00:16:56.244Z,100454.41
2024-02-08T00:17:28.880Z,100459.78
2024-02-08T00:18:01.756Z,100460.56
2024-02-08T00:18:33.670Z,100466.28
2024-02-08T00:19:05.576Z,100461.22
2024-02-08T00:19:37.504Z,100469.28
2024-02-08T00:20:09.682Z,100472.75
2024-02-08T00:20:41.708Z,100467.38
2024-02-08T00:21:19.214Z,100471.97
2024-02-08T00:21:51.502Z,100469.28
2024-02-08T00:22:23.111Z,100463.91
2024-02-08T00:23:17.245Z,100467.84
2024-02-08T00:23:49.044Z,100464.69
2024-02-08T00:24:21.815Z,100459.97
2024-02-08T00:25:00.626Z,100454.59
2024-02-08T00:26:09.709Z,100458.06
2024-02-08T00:26:42.774Z,100457.28
2024-02-08T00:27:14.547Z,100446.84
2024-02-08T00:27:49.875Z,100454.47
2024-02-08T00:28:22.788Z,100452.91
2024-02-08T00:28:54.264Z,100458.28
2024-02-08T00:29:28.163Z,100455.91
2024-02-08T00:30:02.615Z,100459.41
2024-02-08T00:30:34.523Z,100460.19
2024-02-08T00:31:26.568Z,100459.03
2024-02-08T00:32:01.310Z,100457.16
2024-02-08T00:32:51.434Z,100455.59
2024-02-08T00:33:25.603Z,100457.94
2024-02-08T00:33:57.862Z,100455.25
2024-02-08T00:34:29.596Z,100456.81
2024-02-08T00:35:07.834Z,100460.28
2024-02-08T00:35:44.524Z,100458.41
2024-02-08T00:36:19.752Z,100455.72
2024-02-08T00:36:52.173Z,100457.59
2024-02-08T00:38:13.032Z,100462.66
2024-02-08T00:39:08.144Z,100465.34
2024-02-08T00:39:45.646Z,100459.97
2024-02-08T00:40:36.556Z,100461.56
2024-02-08T00:41:08.205Z,100456.19
2024-02-08T00:41:39.808Z,100453.50
2024-02-08T00:42:14.427Z,100459.97
2024-02-08T00:42:49.314Z,100465.34
2024-02-08T00:43:21.438Z,100457.28
2024-02-08T00:44:12.337Z,100463.13
2024-02-08T00:44:49.098Z,100463.44
2024-02-08T00:45:24.082Z,100467.72
2024-02-08T00:45:55.801Z,100466.59
2024-02-08T00:46:27.740Z,100460.13
2024-02-08T00:47:18.110Z,100471.34
2024-02-08T00:47:56.040Z,100460.13
2024-02-08T00:48:28.119Z,100468.63
2024-02-08T00:48:59.895Z,100471.34
2024-02-08T00:49:31.844Z,100464.38
2024-02-08T00:50:04.753Z,100465.94
2024-02-08T00:50:39.672Z,100464.84
2024-02-08T00:51:14.023Z,100464.84
2024-02-08T00:51:45.697Z,100463.28
2024-02-08T00:52:19.791Z,100454.09
2024-02-08T00:53:44.424Z,100465.31
2024-02-08T00:54:19.338Z,100459.47
2024-02-08T00:54:52.852Z,100456.47
2024-02-08T00:55:46.326Z,100463.41
2024-02-08T00:56:22.285Z,100462.63
2024-02-08T00:56:54.643Z,100455.66
2024-02-08T00:57:34.035Z,100459.16
2024-02-08T00:58:06.076Z,100455.66
2024-02-08T00:58:37.777Z,100450.28
2024-02-08T00:59:12.691Z,100444.13
2024-02-08T00:59:46.612Z,100446.50
2024-02-08T01:00:21.335Z,100450.28
2024-02-08T01:00:54.630Z,100442.22
2024-02-08T01:01:32.251Z,100446.50
2024-02-08T01:02:06.466Z,100442.69
2024-02-08T01:02:41.245Z,100450.28
2024-02-08T01:03:14.913Z,100447.13
2024-02-08T01:03:48.365Z,100449.84
2024-02-08T01:04:38.776Z,100443.66
2024-02-08T01:05:13.652Z,100435.94
2024-02-08T01:06:07.161Z,100438.63
2024-02-08T01:06:42.325Z,100435.13
2024-02-08T01:07:14.308Z,100436.25
2024-02-08T01:07:45.892Z,100432.78
2024-02-08T01:08:17.585Z,100436.25
2024-02-08T01:08:49.344Z,100435.47
2024-02-08T01:09:24.227Z,100435.78
2024-02-08T01:09:55.948Z,100427.72
2024-02-08T01:10:31.486Z,100433.09
2024-02-08T01:11:06.015Z,100429.63
2024-02-08T01:11:37.959Z,100435.00
2024-02-08T01:12:11.366Z,100429.16
2024-02-08T01:13:01.756Z,100435.00
2024-02-08T01:13:33.754Z,100435.78
2024-02-08T01:14:07.854Z,100433.88
2024-02-08T01:14:58.153Z,100439.72
2024-02-08T01:15:30.140Z,100445.09
2024-02-08T01:16:31.822Z,100437.03
2024-02-08T01:17:06.467Z,100444.78
2024-02-08T01:17:38.180Z,100446.34
2024-02-08T01:18:11.478Z,100443.66
2024-02-08T01:19:01.929Z,100443.66
2024-02-08T01:19:35.245Z,100436.84
2024-02-08T01:20:08.161Z,100445.25
2024-02-08T01:20:41.714Z,100437.97
2024-02-08T01:21:14.930Z,100440.66
2024-02-08T01:21:52.966Z,100436.06
2024-02-08T01:23:03.098Z,100431.47
2024-02-08T01:24:52.227Z,100423.09
2024-02-08T01:25:24.127Z,100424.22
2024-02-08T01:25:55.979Z,100426.56
2024-02-08T01:26:30.262Z,100429.59
2024-02-08T01:27:02.850Z,100425.31
2024-02-08T01:27:34.679Z,100425.00
2024-02-08T01:28:08.345Z,100434.16
2024-02-08T01:28:41.486Z,100423.41
2024-02-08T01:29:13.342Z,100434.16
2024-02-08T01:29:45.567Z,100428.00
2024-02-08T01:30:17.355Z,100433.38
2024-02-08T01:31:43.695Z,100435.28
2024-02-08T01:32:17.667Z,100437.19
2024-02-08T01:32:50.354Z,100439.88
2024-02-08T01:33:24.718Z,100436.38
2024-02-08T01:33:56.619Z,100432.59
2024-02-08T01:34:30.452Z,100437.97
2024-02-08T01:35:03.961Z,100434.50
2024-02-08T01:35:41.386Z,100435.28
2024-02-08T01:36:14.704Z,100426.44
2024-02-08T01:36:53.232Z,100434.16
2024-02-08T01:37:29.273Z,100432.28
2024-02-08T01:38:03.800Z,100423.41
2024-02-08T01:38:36.235Z,100421.53
2024-02-08T01:39:19.646Z,100429.59
2024-02-08T01:39:51.547Z,100430.38
2024-02-08T01:40:24.034Z,100433.06
2024-02-08T01:40:56.616Z,100428.47
2024-02-08T01:41:32.487Z,100437.66
2024-02-08T01:42:12.060Z,100438.09
2024-02-08T01:42:52.820Z,100438.91
2024-02-08T01:43:29.229Z,100433.53
2024-02-08T01:44:05.069Z,100437.00
2024-02-08T01:44:39.346Z,100431.16
2024-02-08T01:45:31.708Z,100437.78
2024-02-08T01:46:04.135Z,100437.00
2024-02-08T01:46:39.783Z,100434.31
2024-02-08T01:47:11.817Z,100430.84
2024-02-08T01:47:49.535Z,100429.72
2024-02-08T01:48:24.330Z,100432.41
2024-02-08T01:48:58.969Z,100427.34
2024-02-08T01:49:33.472Z,100432.72
2024-02-08T01:50:05.811Z,100430.84
2024-02-08T01:50:46.288Z,100432.72
2024-02-08T01:51:38.913Z,100439.69
2024-02-08T01:52:19.316Z,100438.09
2024-02-08T01:52:52.418Z,100434.63
2024-02-08T01:53:29.607Z,100440.78
2024-02-08T01:54:04.922Z,100437.31
2024-02-08T01:54:45.126Z,100433.53
2024-02-08T01:55:17.790Z,100444.28
2024-02-08T01:56:14.891Z,100436.22
2024-02-08T01:56:49.359Z,100431.94
2024-02-08T01:57:21.501Z,100428.47
2024-02-08T01:57:53.634Z,100432.28
2024-02-08T01:58:26.205Z,100433.06
2024-02-08T01:59:01.865Z,100430.38
2024-02-08T01:59:34.105Z,100425.63
2024-02-08T02:00:12.475Z,100429.91
2024-02-08T02:00:50.671Z,100436.06
2024-02-08T02:01:26.032Z,100434.50
2024-02-08T02:01:59.643Z,100431.00
2024-02-08T02:02:38.442Z,100428.00
2024-02-08T02:03:14.127Z,100424.53
2024-02-08T02:03:47.885Z,100420.72
2024-02-08T02:04:22.189Z,100426.44
2024-02-08T02:05:00.176Z,100421.06
2024-02-08T02:05:32.405Z,100426.44
2024-02-08T02:06:11.548Z,100413.31
2024-02-08T02:07:03.767Z,100415.34
2024-02-08T02:07:36.748Z,100408.41
2024-02-08T02:08:14.511Z,100406.84
2024-02-08T02:08:59.010Z,100401.44
2024-02-08T02:09:33.641Z,100396.53
2024-02-08T02:10:05.856Z,100401.91
2024-02-08T02:10:38.725Z,100401.91
2024-02-08T02:11:26.117Z,100405.06
2024-02-08T02:12:18.309Z,100406.63
2024-02-08T02:12:50.678Z,100412.00
2024-02-08T02:13:24.614Z,100414.69
2024-02-08T02:14:56.621Z,100411.69
2024-02-08T02:15:35.117Z,100405.06
2024-02-08T02:16:09.221Z,100405.84
2024-02-08T02:16:41.785Z,100413.59
2024-02-08T02:17:21.937Z,100406.63
2024-02-08T02:17:56.351Z,100407.88
2024-02-08T02:18:28.111Z,100409.47
2024-02-08T02:18:59.952Z,100398.72
2024-02-08T02:19:32.204Z,100401.41
2024-02-08T02:20:13.749Z,100408.31
2024-02-08T02:20:45.815Z,100410.69
2024-02-08T02:21:23.909Z,100418.75
2024-02-08T02:21:55.573Z,100410.69
2024-02-08T02:22:30.199Z,100416.06
2024-02-08T02:23:02.824Z,100418.75
2024-02-08T02:23:37.124Z,100420.31
2024-02-08T02:24:09.233Z,100427.59
2024-02-08T02:24:42.935Z,100416.06
2024-02-08T02:25:17.251Z,100415.28
2024-02-08T02:25:54.955Z,100413.38
2024-02-08T02:26:33.953Z,100413.84
2024-02-08T02:27:06.747Z,100410.34
2024-02-08T02:27:43.538Z,100410.34
2024-02-08T02:28:21.094Z,100414.28
2024-02-08T02:28:56.656Z,100410.03
2024-02-08T02:29:28.931Z,100405.44
2024-02-08T02:30:02.228Z,100413.50
2024-02-08T02:30:36.109Z,100405.44
2024-02-08T02:31:08.895Z,100411.59
2024-02-08T02:31:43.731Z,100411.28
2024-02-08T02:32:17.156Z,100409.38
2024-02-08T02:32:53.661Z,100404.00
2024-02-08T02:33:26.951Z,100407.81
2024-02-08T02:34:18.302Z,100408.59
2024-02-08T02:34:55.080Z,100400.19
2024-02-08T02:35:32.442Z,100401.66
2024-02-08T02:36:55.093Z,100401.31
2024-02-08T02:37:26.597Z,100388.66
2024-02-08T02:38:04.167Z,100392.47
2024-02-08T02:38:38.936Z,100392.47
2024-02-08T02:39:10.425Z,100389.78
2024-02-08T02:39:42.223Z,100394.03
2024-02-08T02:40:22.886Z,100396.72
2024-02-08T02:40:54.363Z,100393.25
2024-02-08T02:41:29.122Z,100393.25
2024-02-08T02:42:00.900Z,100388.66
2024-02-08T02:42:32.400Z,100386.75
2024-02-08T02:43:11.053Z,100390.56
2024-02-08T02:43:45.659Z,100387.88
2024-02-08T02:44:36.345Z,100390.25
2024-02-08T02:45:14.257Z,100392.59
2024-02-08T02:46:06.784Z,100394.81
2024-02-08T02:46:38.285Z,100397.97
2024-02-08T02:47:09.772Z,100408.72
2024-02-08T02:47:41.405Z,100397.19
2024-02-08T02:48:13.341Z,100404.47
2024-02-08T02:48:45.185Z,100399.88
2024-02-08T02:49:19.037Z,100394.19
2024-02-08T02:49:52.733Z,100396.88
2024-02-08T02:50:24.951Z,100391.50
2024-02-08T02:50:56.534Z,100385.31
2024-02-08T02:51:28.679Z,100398.75
2024-02-08T02:52:19.064Z,100394.19
2024-02-08T02:52:52.565Z,100394.19
2024-02-08T02:53:25.671Z,100394.97
2024-02-08T02:53:59.072Z,100393.06
2024-02-08T02:54:32.044Z,100394.19
2024-02-08T02:55:03.631Z,100399.22
2024-02-08T02:55:36.273Z,100390.38
2024-02-08T02:56:13.067Z,100393.06
2024-02-08T02:56:48.570Z,100389.59
2024-02-08T02:57:20.171Z,100391.16
2024-02-08T02:57:51.649Z,100394.97
2024-02-08T02:58:24.633Z,100393.06
2024-02-08T02:59:17.661Z,100386.56
2024-02-08T02:59:49.178Z,100381.19
2024-02-08T03:00:25.165Z,100381.19
2024-02-08T03:01:05.883Z,100387.69
2024-02-08T03:01:57.235Z,100382.31
2024-02-08T03:02:29.908Z,100380.41
2024-02-08T03:03:08.760Z,100380.41
2024-02-08T03:03:59.234Z,100382.75
2024-02-08T03:04:50.287Z,100384.66
2024-02-08T03:05:24.757Z,100388.16
2024-02-08T03:05:57.688Z,100388.16
2024-02-08T03:06:29.150Z,100387.34
2024-02-08T03:07:00.636Z,100388.16
2024-02-08T03:07:32.683Z,100388.94
2024-02-08T03:08:07.875Z,100391.63
2024-02-08T03:08:42.363Z,100385.91
2024-02-08T03:09:16.798Z,100383.56
2024-02-08T03:10:06.685Z,100385.91
2024-02-08T03:10:43.899Z,100377.84
2024-02-08T03:11:15.906Z,100373.59
2024-02-08T03:11:47.565Z,100375.16
2024-02-08T03:12:19.531Z,100375.94
2024-02-08T03:12:52.511Z,100370.56
2024-02-08T03:13:24.363Z,100375.94
2024-02-08T03:13:56.572Z,100373.25
2024-02-08T03:14:47.723Z,100363.63
2024-02-08T03:15:20.359Z,100373.25
2024-02-08T03:15:53.917Z,100370.56
2024-02-08T03:16:27.478Z,100371.34
2024-02-08T03:17:03.136Z,100375.16
2024-02-08T03:17:34.937Z,100375.16
2024-02-08T03:18:08.851Z,100367.88
2024-02-08T03:18:44.564Z,100364.41
2024-02-08T03:19:17.163Z,100365.19
2024-02-08T03:19:48.791Z,100372.47
2024-02-08T03:20:30.818Z,100362.84
2024-02-08T03:21:02.312Z,100368.66
2024-02-08T03:21:37.687Z,100362.84
2024-02-08T03:22:09.948Z,100358.25
2024-02-08T03:22:41.686Z,100354.78
2024-02-08T03:23:31.834Z,100368.22
2024-02-08T03:24:08.804Z,100366.31
2024-02-08T03:24:40.463Z,100360.16
2024-02-08T03:25:15.707Z,100362.03
2024-02-08T03:25:50.471Z,100360.47
2024-02-08T03:26:48.150Z,100354.78
2024-02-08T03:27:22.815Z,100356.34
2024-02-08T03:27:54.852Z,100363.28
2024-02-08T03:28:26.320Z,100357.13
2024-02-08T03:28:57.814Z,100359.81
2024-02-08T03:29:29.241Z,100359.50
2024-02-08T03:30:03.509Z,100357.13
2024-02-08T03:30:36.001Z,100359.50
2024-02-08T03:31:10.143Z,100360.25
2024-02-08T03:31:48.137Z,100359.50
2024-02-08T03:32:22.333Z,100358.34
2024-02-08T03:32:54.648Z,100359.13
2024-02-08T03:33:26.604Z,100360.25
2024-02-08T03:33:58.135Z,100364.50
2024-02-08T03:34:32.900Z,100356.81
2024-02-08T03:35:06.329Z,100363.72
2024-02-08T03:35:39.964Z,100362.59
2024-02-08T03:36:11.422Z,100366.09
2024-02-08T03:36:43.105Z,100358.00
2024-02-08T03:37:14.542Z,100358.81
2024-02-08T03:37:49.393Z,100361.81
2024-02-08T03:38:21.463Z,100351.84
2024-02-08T03:38:54.126Z,100353.75
2024-02-08T03:39:26.593Z,100361.50
2024-02-08T03:39:58.486Z,100358.81
2024-02-08T03:40:33.964Z,100352.97
2024-02-08T03:41:05.868Z,100347.59
2024-02-08T03:41:38.173Z,100356.44
2024-02-08T03:42:12.396Z,100352.97
2024-02-08T03:42:43.865Z,100346.81
2024-02-08T03:43:16.877Z,100350.28
2024-02-08T03:43:49.198Z,100346.81
2024-02-08T03:44:22.583Z,100346.03
2024-02-08T03:44:54.082Z,100346.81
2024-02-08T03:45:28.588Z,100346.81
2024-02-08T03:46:02.767Z,100338.41
2024-02-08T03:46:34.297Z,100341.09
2024-02-08T03:47:06.813Z,100347.59
2024-02-08T03:48:01.513Z,100351.53
2024-02-08T03:48:33.876Z,100346.16
2024-02-08T03:49:09.865Z,100343.78
2024-02-08T03:49:52.532Z,100349.16
2024-02-08T03:50:26.125Z,100351.06
2024-02-08T03:51:01.806Z,100348.38
2024-02-08T03:51:33.327Z,100352.97
2024-02-08T03:52:05.971Z,100344.13
2024-02-08T03:52:38.531Z,100347.59
2024-02-08T03:53:15.730Z,100344.13
2024-02-08T03:53:47.226Z,100353.75
2024-02-08T03:54:18.897Z,100346.03
2024-02-08T03:54:50.408Z,100351.41
2024-02-08T03:55:27.805Z,100350.63
2024-02-08T03:56:00.468Z,100349.84
2024-02-08T03:56:38.347Z,100346.38
2024-02-08T03:57:30.230Z,100349.84
2024-02-08T03:58:01.771Z,100355.22
2024-02-08T03:58:33.286Z,100347.50
2024-02-08T03:59:13.001Z,100346.69
2024-02-08T03:59:44.589Z,100352.06
2024-02-08T04:00:24.084Z,100343.22
2024-02-08T04:01:01.395Z,100345.91
2024-02-08T04:01:33.144Z,100342.44
2024-02-08T04:02:06.681Z,100348.94
2024-02-08T04:02:39.633Z,100344.34
2024-02-08T04:03:34.584Z,100349.72
2024-02-08T04:04:16.860Z,100339.75
2024-02-08T04:05:07.795Z,100339.41
2024-02-08T04:05:48.298Z,100340.22
2024-02-08T04:07:01.505Z,100338.31
2024-02-08T04:07:52.213Z,100344.47
2024-02-08T04:08:33.872Z,100338.31
2024-02-08T04:09:10.897Z,100340.22
2024-02-08T04:09:49.752Z,100334.84
2024-02-08T04:10:41.237Z,100339.41
2024-02-08T04:11:31.053Z,100329.78
2024-02-08T04:12:21.193Z,100335.94
2024-02-08T04:13:11.041Z,100345.59
2024-02-08T04:14:01.087Z,100342.13
2024-02-08T04:14:51.611Z,100347.50
2024-02-08T04:15:42.214Z,100342.91
2024-02-08T04:16:32.281Z,100349.06
2024-02-08T04:17:22.797Z,100346.69
2024-02-08T04:18:13.025Z,100338.63
2024-02-08T04:19:03.217Z,100345.59
2024-02-08T04:19:53.255Z,100342.13
2024-02-08T04:21:02.378Z,100337.53
2024-02-08T04:21:52.268Z,100334.84
2024-02-08T04:22:42.236Z,100325.66
2024-02-08T04:23:34.584Z,100323.28
2024-02-08T04:24:25.680Z,100316.34
2024-02-08T04:25:34.970Z,100317.47
2024-02-08T04:26:26.186Z,100310.50
2024-02-08T04:27:16.723Z,100308.59
2024-02-08T04:28:06.764Z,100310.50
2024-02-08T04:28:57.082Z,100315.88
2024-02-08T04:29:47.257Z,100315.09
2024-02-08T04:30:37.324Z,100317.00
2024-02-08T04:31:30.314Z,100328.88
2024-02-08T04:32:20.250Z,100318.13
2024-02-08T04:33:10.135Z,100312.72
2024-02-08T04:34:19.059Z,100308.16
2024-02-08T04:35:28.023Z,100312.72
2024-02-08T04:36:17.906Z,100312.72
2024-02-08T04:37:08.251Z,100310.06
2024-02-08T04:37:58.053Z,100304.66
2024-02-08T04:38:47.946Z,100305.47
2024-02-08T04:39:37.773Z,100294.72
2024-02-08T04:40:29.535Z,100291.22
2024-02-08T04:41:24.259Z,100293.13
2024-02-08T04:42:14.235Z,100290.44
2024-02-08T04:43:06.134Z,100289.66
2024-02-08T04:43:56.126Z,100280.81
2024-02-08T04:44:46.110Z,100286.97
2024-02-08T04:45:36.034Z,100287.75
2024-02-08T04:46:25.958Z,100290.44
2024-02-08T04:47:27.005Z,100287.75
2024-02-08T04:48:17.026Z,100290.91
2024-02-08T04:49:07.029Z,100291.22
2024-02-08T04:49:56.972Z,100294.25
2024-02-08T04:51:06.611Z,100296.16
2024-02-08T04:51:56.713Z,100286.19
2024-02-08T04:52:46.878Z,100288.88
2024-02-08T04:53:46.620Z,100291.22
2024-02-08T04:54:18.404Z,100295.03
2024-02-08T04:54:49.983Z,100283.50
2024-02-08T04:55:21.380Z,100284.59
2024-02-08T04:55:52.949Z,100292.66
2024-02-08T04:56:24.587Z,100289.19
2024-02-08T04:57:00.761Z,100293.47
2024-02-08T04:57:32.193Z,100291.09
2024-02-08T04:58:28.057Z,100292.66
2024-02-08T04:59:17.154Z,100292.66
2024-02-08T04:59:48.689Z,100294.56
2024-02-08T05:00:39.792Z,100299.16
2024-02-08T05:01:12.095Z,100306.13
2024-02-08T05:01:43.547Z,100305.31
2024-02-08T05:02:15.304Z,100301.84
2024-02-08T05:03:05.680Z,100314.97
2024-02-08T05:03:39.314Z,100312.59
2024-02-08T05:04:10.870Z,100309.13
2024-02-08T05:04:44.240Z,100313.38
2024-02-08T05:05:20.466Z,100314.97
2024-02-08T05:05:55.415Z,100315.75
2024-02-08T05:06:27.073Z,100321.59
2024-02-08T05:06:58.690Z,100320.81
2024-02-08T05:07:30.207Z,100318.91
2024-02-08T05:08:02.392Z,100316.22
2024-02-08T05:08:33.953Z,100320.47
2024-02-08T05:09:05.746Z,100317.31
2024-02-08T05:09:37.282Z,100317.31
2024-02-08T05:10:10.047Z,100312.28
2024-02-08T05:10:41.746Z,100313.06
2024-02-08T05:11:15.806Z,100313.38
2024-02-08T05:11:50.123Z,100309.59
2024-02-08T05:12:22.109Z,100308.81
2024-02-08T05:12:53.545Z,100307.22
2024-02-08T05:13:26.992Z,100305.31
2024-02-08T05:14:04.088Z,100303.44
2024-02-08T05:14:39.628Z,100306.13
2024-02-08T05:15:14.159Z,100300.41
2024-02-08T05:15:47.402Z,100303.09
2024-02-08T05:16:20.120Z,100301.19
2024-02-08T05:16:55.416Z,100312.72
2024-02-08T05:17:45.811Z,100310.06
2024-02-08T05:18:17.333Z,100306.56
2024-02-08T05:18:50.040Z,100303.88
2024-02-08T05:19:24.677Z,100308.16
2024-02-08T05:20:37.241Z,100306.25
2024-02-08T05:21:32.709Z,100296.28
2024-02-08T05:22:04.519Z,100304.34
2024-02-08T05:22:36.068Z,100302.78
2024-02-08T05:23:07.544Z,100305.47
2024-02-08T05:23:42.376Z,100308.94
2024-02-08T05:24:14.942Z,100306.25
2024-02-08T05:24:47.428Z,100304.66
2024-02-08T05:25:25.539Z,100303.09
2024-02-08T05:25:58.164Z,100301.97
2024-02-08T05:26:33.286Z,100296.59
2024-02-08T05:27:05.103Z,100298.97
2024-02-08T05:27:37.558Z,100292.81
2024-02-08T05:28:11.455Z,100300.53
2024-02-08T05:28:44.487Z,100296.28
2024-02-08T05:29:20.885Z,100290.91
2024-02-08T05:29:52.784Z,100297.41
2024-02-08T05:30:24.282Z,100294.72
2024-02-08T05:30:55.854Z,100301.19
2024-02-08T05:31:27.968Z,100299.63
2024-02-08T05:32:00.092Z,100291.88
2024-02-08T05:32:36.815Z,100297.59
2024-02-08T05:33:30.599Z,100301.53
2024-02-08T05:34:02.522Z,100302.63
2024-02-08T05:34:34.400Z,100308.81
2024-02-08T05:35:06.397Z,100296.47
2024-02-08T05:35:38.139Z,100301.84
2024-02-08T05:36:13.681Z,100298.38
2024-02-08T05:37:04.262Z,100291.88
2024-02-08T05:37:35.827Z,100296.47
2024-02-08T05:38:09.178Z,100307.22
2024-02-08T05:38:43.315Z,100301.06
2024-02-08T05:39:25.778Z,100298.38
2024-02-08T05:40:01.699Z,100295.69
2024-02-08T05:40:33.322Z,100301.84
2024-02-08T05:41:18.282Z,100293.78
2024-02-08T05:41:49.821Z,100284.16
2024-02-08T05:42:40.030Z,100283.38
2024-02-08T05:43:11.533Z,100287.63
2024-02-08T05:43:46.048Z,100287.63
2024-02-08T05:44:17.770Z,100289.53
2024-02-08T05:45:07.752Z,100293.78
2024-02-08T05:45:39.165Z,100297.72
2024-02-08T05:46:10.895Z,100292.66
2024-02-08T05:46:42.366Z,100292.66
2024-02-08T05:47:16.266Z,100291.88
2024-02-08T05:47:49.776Z,100290.78
2024-02-08T05:48:24.956Z,100293.13
2024-02-08T05:49:12.866Z,100290.44
2024-02-08T05:49:50.221Z,100279.69
2024-02-08T05:50:25.742Z,100290.44
2024-02-08T05:50:58.479Z,100292.00
2024-02-08T05:51:29.989Z,100297.41
2024-02-08T05:52:07.146Z,100298.19
2024-02-08T05:52:39.741Z,100297.41
2024-02-08T05:53:16.780Z,100298.97
2024-02-08T05:53:48.984Z,100297.41
2024-02-08T05:54:33.174Z,100293.59
2024-02-08T05:55:05.354Z,100290.91
2024-02-08T05:55:41.062Z,100294.38
2024-02-08T05:56:12.545Z,100284.41
2024-02-08T05:56:44.631Z,100282.50
2024-02-08T05:57:16.147Z,100282.50
2024-02-08T05:57:48.600Z,100278.69
2024-02-08T05:58:21.031Z,100278.69
2024-02-08T05:58:52.982Z,100276.81
2024-02-08T05:59:24.572Z,100276.00
2024-02-08T06:00:01.405Z,100269.84
2024-02-08T06:00:46.874Z,100262.91
2024-02-08T06:01:22.904Z,100263.69
2024-02-08T06:01:55.780Z,100261.00
2024-02-08T06:02:27.870Z,100263.69
2024-02-08T06:03:06.898Z,100257.53
2024-02-08T06:03:39.255Z,100263.69
2024-02-08T06:04:13.823Z,100262.56
2024-02-08T06:04:52.640Z,100252.94
2024-02-08T06:05:28.110Z,100265.25
2024-02-08T06:06:08.126Z,100267.16
2024-02-08T06:06:49.536Z,100259.09
2024-02-08T06:07:40.619Z,100263.69
2024-02-08T06:08:26.381Z,100261.78
2024-02-08T06:08:58.049Z,100257.53
2024-02-08T06:09:47.829Z,100257.53
2024-02-08T06:10:24.019Z,100262.13
2024-02-08T06:10:57.050Z,100269.41
2024-02-08T06:11:28.576Z,100264.81
2024-02-08T06:12:09.785Z,100260.53
2024-02-08T06:12:45.710Z,100260.22
2024-02-08T06:13:18.194Z,100263.34
2024-02-08T06:14:07.923Z,100263.34
2024-02-08T06:14:40.239Z,100264.94
2024-02-08T06:15:34.945Z,100259.56
2024-02-08T06:16:15.624Z,100263.44
2024-02-08T06:16:48.096Z,100264.25
2024-02-08T06:17:25.429Z,100261.91
2024-02-08T06:18:05.115Z,100262.69
2024-02-08T06:18:39.141Z,100262.34
2024-02-08T06:19:10.754Z,100265.38
2024-02-08T06:19:52.268Z,100261.13
2024-02-08T06:20:35.607Z,100260.34
2024-02-08T06:21:25.176Z,100264.47
2024-02-08T06:21:58.903Z,100265.59
2024-02-08T06:22:31.475Z,100265.91
2024-02-08T06:23:17.276Z,100260.53
2024-02-08T06:23:49.826Z,100263.56
2024-02-08T06:24:25.117Z,100261.66
2024-02-08T06:25:10.035Z,100253.59
2024-02-08T06:25:46.384Z,100259.75
2024-02-08T06:26:18.250Z,100254.84
2024-02-08T06:26:57.123Z,100255.63
2024-02-08T06:27:34.921Z,100254.50
2024-02-08T06:28:06.750Z,100257.97
2024-02-08T06:28:54.651Z,100252.28
2024-02-08T06:29:28.583Z,100253.06
2024-02-08T06:30:08.954Z,100254.97
2024-02-08T06:30:48.090Z,100253.84
2024-02-08T06:31:21.026Z,100254.63
2024-02-08T06:32:01.580Z,100253.84
2024-02-08T06:32:45.060Z,100258.44
2024-02-08T06:33:27.146Z,100264.59
2024-02-08T06:34:19.303Z,100261.44
2024-02-08T06:35:09.405Z,100266.50
2024-02-08T06:35:46.345Z,100250.69
2024-02-08T06:36:24.155Z,100245.31
2024-02-08T06:37:17.399Z,100242.63
2024-02-08T06:38:04.069Z,100238.03
2024-02-08T06:38:42.649Z,100232.22
2024-02-08T06:39:31.142Z,100231.09
2024-02-08T06:40:05.915Z,100236.13
2024-02-08T06:40:56.441Z,100228.06
2024-02-08T06:41:47.908Z,100233.44
2024-02-08T06:42:48.448Z,100227.28
2024-02-08T06:43:26.456Z,100232.66
2024-02-08T06:43:58.637Z,100229.97
2024-02-08T06:44:39.115Z,100226.84
2024-02-08T06:45:26.292Z,100230.63
2024-02-08T06:45:57.807Z,100232.88
2024-02-08T06:46:48.743Z,100230.50
2024-02-08T06:47:40.503Z,100235.09
2024-02-08T06:48:36.252Z,100233.53
2024-02-08T06:49:31.188Z,100226.91
2024-02-08T06:50:21.153Z,100233.75
2024-02-08T06:51:11.023Z,100222.97
2024-02-08T06:52:00.981Z,100226.78
2024-02-08T06:52:50.893Z,100227.91
2024-02-08T06:53:41.204Z,100225.66
2024-02-08T06:54:31.547Z,100223.44
2024-02-08T06:55:21.884Z,100225.00
2024-02-08T06:56:12.708Z,100224.69
2024-02-08T06:57:22.811Z,100214.72
2024-02-08T06:58:12.776Z,100217.84
2024-02-08T06:59:21.906Z,100217.84
2024-02-08T07:00:12.054Z,100209.78
2024-02-08T07:01:02.266Z,100204.41
2024-02-08T07:03:00.724Z,100205.22
2024-02-08T07:03:50.732Z,100202.50
2024-02-08T07:04:40.852Z,100206.00
2024-02-08T07:05:31.148Z,100202.84
2024-02-08T07:06:20.969Z,100203.19
2024-02-08T07:07:10.871Z,100210.34
2024-02-08T07:08:01.463Z,100204.84
2024-02-08T07:08:51.831Z,100201.81
2024-02-08T07:09:41.828Z,100197.56
2024-02-08T07:10:31.843Z,100192.97
2024-02-08T07:11:22.246Z,100195.66
2024-02-08T07:12:31.203Z,100195.66
2024-02-08T07:13:21.587Z,100191.41
2024-02-08T07:14:11.871Z,100194.09
2024-02-08T07:16:10.252Z,100185.59
2024-02-08T07:17:00.116Z,100194.09
2024-02-08T07:17:50.673Z,100193.75
2024-02-08T07:18:49.161Z,100199.59
2024-02-08T07:19:42.638Z,100194.66
2024-02-08T07:20:32.596Z,100198.78
2024-02-08T07:21:41.864Z,100192.53
2024-02-08T07:22:32.324Z,100192.53
2024-02-08T07:23:23.140Z,100200.69
2024-02-08T07:24:13.040Z,100191.84
2024-02-08T07:25:04.009Z,100193.41
2024-02-08T07:25:54.145Z,100196.56
2024-02-08T07:26:44.227Z,100188.16
2024-02-08T07:27:34.257Z,100184.69
2024-02-08T07:28:24.841Z,100188.50
2024-02-08T07:29:14.850Z,100180.44
2024-02-08T07:30:04.708Z,100179.31
2024-02-08T07:30:57.911Z,100178.88
2024-02-08T07:31:48.070Z,100178.88